Time;durP1;ratioP1;P1;durP2;ratioP2;P2;SDS_P1;SDS_P2;PMS_P1;PMS_P2;Temp;Humidity;BMP_temperature;BMP_pressure;BME280_temperature;BME280_humidity;BME280_pressure;Samples;Min_cycle;Max_cycle;Signal;HPM_P1;HPM_P2
2022/12/22 03:26:42;;;;;;;3.75;0.80;;;22.70;99.90;;;;;;5075442;28;20326;-83
2022/12/22 03:29:14;;;;;;;2.63;0.57;;;22.70;99.90;;;;;;5093902;28;20710;-82
2022/12/22 03:31:45;;;;;;;1.45;0.40;;;22.80;99.90;;;;;;5085989;28;20219;-83
2022/12/22 03:34:19;;;;;;;2.53;0.70;;;22.80;99.90;;;;;;5087800;28;20665;-83
2022/12/22 03:36:51;;;;;;;3.28;0.52;;;22.80;99.90;;;;;;5074294;28;20192;-83
2022/12/22 03:39:27;;;;;;;2.40;0.52;;;23.00;99.90;;;;;;5080763;28;20274;-85
2022/12/22 03:47:35;;;;;;;2.83;0.70;;;23.20;99.90;;;;;;5089363;28;20203;-84
2022/12/22 03:50:08;;;;;;;5.22;0.90;;;23.00;99.90;;;;;;5092536;28;20289;-84
2022/12/22 03:52:39;;;;;;;5.18;0.82;;;22.90;99.90;;;;;;5080876;28;20193;-84
2022/12/22 03:55:12;;;;;;;4.05;0.90;;;23.00;99.90;;;;;;5075954;28;20269;-85
2022/12/22 03:57:42;;;;;;;2.50;0.55;;;23.10;99.90;;;;;;5078828;28;20234;-84
2022/12/22 04:00:14;;;;;;;3.13;0.70;;;23.30;99.90;;;;;;5103636;28;20250;-84
2022/12/22 04:02:45;;;;;;;1.55;0.50;;;23.40;99.90;;;;;;5108849;28;20179;-82
2022/12/22 04:05:18;;;;;;;3.65;0.80;;;23.50;99.90;;;;;;5098094;28;20245;-84
2022/12/22 04:07:49;;;;;;;3.45;0.60;;;23.50;99.90;;;;;;5094403;28;20199;-85
2022/12/22 04:13:06;;;;;;;2.10;0.80;;;23.50;99.90;;;;;;5094674;28;20248;-84
2022/12/22 04:15:40;;;;;;;3.92;0.70;;;23.50;99.90;;;;;;5096035;28;20199;-83
2022/12/22 04:18:10;;;;;;;5.03;0.80;;;23.40;99.90;;;;;;5088366;28;20231;-84
2022/12/22 04:20:48;;;;;;;2.05;0.80;;;23.50;99.90;;;;;;5097882;28;20222;-84
2022/12/22 04:23:19;;;;;;;2.33;0.50;;;23.40;99.90;;;;;;5076671;28;20218;-84
2022/12/22 04:25:53;;;;;;;2.40;0.52;;;23.50;99.90;;;;;;5092764;28;20204;-83
2022/12/22 04:28:24;;;;;;;1.33;0.52;;;23.50;99.90;;;;;;5092407;28;20294;-83
2022/12/22 04:30:55;;;;;;;3.50;0.60;;;23.60;99.90;;;;;;5092987;28;20278;-83
2022/12/22 04:33:26;;;;;;;2.58;0.65;;;23.40;99.90;;;;;;5092412;28;20251;-83
2022/12/22 04:35:59;;;;;;;2.38;0.70;;;23.40;99.90;;;;;;5093959;28;20301;-83
2022/12/22 04:38:37;;;;;;;2.92;0.70;;;23.30;99.90;;;;;;5093318;28;20191;-85
2022/12/22 04:41:09;;;;;;;1.55;0.60;;;23.10;99.90;;;;;;5095486;28;20187;-85
2022/12/22 04:43:41;;;;;;;2.08;0.50;;;23.00;99.90;;;;;;5076486;28;20234;-84
2022/12/22 04:46:12;;;;;;;3.78;0.70;;;23.10;99.90;;;;;;5075151;28;20196;-83
2022/12/22 04:48:44;;;;;;;2.58;0.60;;;23.00;99.90;;;;;;5093696;28;20278;-83
2022/12/22 04:51:17;;;;;;;4.35;0.80;;;23.10;99.90;;;;;;5079664;28;20749;-83
2022/12/22 04:53:47;;;;;;;3.15;0.70;;;23.10;99.90;;;;;;5072930;28;20655;-83
2022/12/22 04:56:18;;;;;;;3.47;0.80;;;23.10;99.90;;;;;;5074398;28;20190;-82
2022/12/22 04:58:49;;;;;;;0.63;0.32;;;23.10;99.90;;;;;;5083219;28;20729;-82
2022/12/22 05:01:22;;;;;;;3.92;0.80;;;23.20;99.90;;;;;;5092072;28;20211;-83
2022/12/22 05:03:53;;;;;;;2.53;0.60;;;23.30;99.90;;;;;;5092140;28;20226;-83
2022/12/22 05:06:27;;;;;;;2.45;0.70;;;23.30;99.90;;;;;;5106944;28;20198;-84
2022/12/22 05:08:58;;;;;;;1.38;0.60;;;23.40;99.90;;;;;;5099099;28;20273;-84
2022/12/22 05:11:28;;;;;;;1.70;0.52;;;23.40;99.90;;;;;;5091774;28;20266;-82
2022/12/22 05:14:00;;;;;;;4.32;0.63;;;23.30;99.90;;;;;;5091864;28;20665;-83
2022/12/22 05:16:30;;;;;;;1.85;0.55;;;23.30;99.90;;;;;;5091293;28;20310;-82
2022/12/22 05:19:01;;;;;;;1.50;0.80;;;23.10;99.90;;;;;;5073292;28;20275;-85
2022/12/22 05:21:36;;;;;;;1.48;0.50;;;23.10;99.90;;;;;;5090118;28;20565;-83
2022/12/22 05:24:07;;;;;;;5.13;0.90;;;23.10;99.90;;;;;;5091145;28;20314;-83
2022/12/22 05:26:38;;;;;;;2.83;0.60;;;23.00;99.90;;;;;;5090801;28;20220;-83
2022/12/22 05:29:09;;;;;;;4.53;0.70;;;22.90;99.90;;;;;;5091174;28;20199;-84
2022/12/22 05:31:39;;;;;;;3.88;0.70;;;22.90;99.90;;;;;;5090433;28;20283;-83
2022/12/22 05:34:11;;;;;;;4.68;0.70;;;22.90;99.90;;;;;;5092149;28;20578;-84
2022/12/22 05:36:43;;;;;;;1.83;0.40;;;22.80;99.90;;;;;;5095037;28;20230;-83
2022/12/22 05:39:14;;;;;;;2.17;0.50;;;22.70;99.90;;;;;;5084328;28;20195;-83
2022/12/22 05:41:45;;;;;;;2.08;0.57;;;22.70;99.90;;;;;;5075831;28;20199;-83
2022/12/22 05:44:19;;;;;;;2.53;0.52;;;22.60;99.90;;;;;;5074638;28;20234;-83
2022/12/22 05:46:53;;;;;;;2.58;0.60;;;22.40;99.90;;;;;;5079310;28;20201;-82
2022/12/22 05:49:23;;;;;;;2.72;0.60;;;22.40;99.90;;;;;;5091553;28;20221;-82
2022/12/22 05:51:57;;;;;;;3.83;0.60;;;22.30;99.90;;;;;;5094547;28;20286;-82
2022/12/22 05:54:27;;;;;;;1.75;0.60;;;22.40;99.90;;;;;;5093926;28;20788;-83
2022/12/22 05:56:59;;;;;;;2.85;0.63;;;22.30;99.90;;;;;;5095036;28;20282;-83
2022/12/22 05:59:30;;;;;;;3.25;0.60;;;22.30;99.90;;;;;;5092641;28;20662;-84
2022/12/22 06:02:01;;;;;;;1.77;0.57;;;22.20;99.90;;;;;;5074186;28;20254;-83
2022/12/22 06:04:32;;;;;;;1.92;0.63;;;22.10;99.90;;;;;;5087306;28;20237;-83
2022/12/22 06:07:04;;;;;;;3.33;0.63;;;22.10;99.90;;;;;;5094553;28;20258;-83
2022/12/22 06:09:35;;;;;;;2.53;0.47;;;22.00;99.90;;;;;;5095211;28;20257;-82
2022/12/22 06:12:07;;;;;;;2.60;0.65;;;22.00;99.90;;;;;;5110650;28;20199;-82
2022/12/22 06:14:38;;;;;;;1.70;0.60;;;22.00;99.90;;;;;;5100965;28;20195;-83
2022/12/22 06:17:09;;;;;;;2.05;0.50;;;22.00;99.90;;;;;;5092333;28;20231;-83
2022/12/22 06:19:40;;;;;;;3.03;0.60;;;22.00;99.90;;;;;;5091988;28;20196;-82
2022/12/22 06:22:12;;;;;;;2.03;0.50;;;22.00;99.90;;;;;;5094668;28;20210;-83
2022/12/22 06:24:43;;;;;;;3.17;0.63;;;22.00;99.90;;;;;;5094488;28;20231;-83
2022/12/22 06:27:14;;;;;;;3.40;0.70;;;22.00;99.90;;;;;;5093169;28;20222;-83
2022/12/22 06:29:45;;;;;;;2.00;0.77;;;22.00;99.90;;;;;;5094445;28;20658;-83
2022/12/22 06:32:16;;;;;;;2.17;0.60;;;21.90;99.90;;;;;;5094468;28;20227;-83
2022/12/22 06:34:49;;;;;;;2.47;0.60;;;21.80;99.90;;;;;;5092075;28;20282;-83
2022/12/22 06:37:22;;;;;;;2.78;0.88;;;21.70;99.90;;;;;;5094253;28;20552;-83
2022/12/22 06:39:53;;;;;;;1.75;0.60;;;21.80;99.90;;;;;;5096474;28;20644;-83
2022/12/22 06:45:11;;;;;;;3.25;0.57;;;21.90;99.90;;;;;;5089283;28;20746;-83
2022/12/22 06:47:43;;;;;;;5.47;0.93;;;21.90;99.90;;;;;;5092714;28;20284;-83
2022/12/22 06:50:14;;;;;;;3.40;0.60;;;21.80;99.90;;;;;;5093788;28;20294;-82
2022/12/22 06:52:47;;;;;;;3.30;0.60;;;21.80;99.90;;;;;;5106648;28;20237;-84
2022/12/22 06:55:19;;;;;;;1.10;0.52;;;21.80;99.90;;;;;;5106188;28;20219;-84
2022/12/22 06:57:50;;;;;;;2.53;0.60;;;21.80;99.90;;;;;;5097787;28;20199;-83
2022/12/22 07:00:21;;;;;;;3.63;0.80;;;21.70;99.90;;;;;;5092650;28;20195;-83
2022/12/22 07:02:52;;;;;;;2.40;0.75;;;21.70;99.90;;;;;;5093719;28;20274;-84
2022/12/22 07:05:23;;;;;;;4.07;1.38;;;21.70;99.90;;;;;;5091785;28;20234;-83
2022/12/22 07:07:56;;;;;;;3.58;0.98;;;21.70;99.90;;;;;;5094014;28;20731;-83
2022/12/22 07:13:20;;;;;;;3.05;0.70;;;21.60;99.90;;;;;;5075888;28;20225;-82
2022/12/22 07:15:51;;;;;;;1.63;1.15;;;21.60;99.90;;;;;;5095702;28;20207;-83
2022/12/22 07:18:22;;;;;;;2.25;1.15;;;21.50;99.90;;;;;;5104091;28;20276;-83
2022/12/22 07:20:53;;;;;;;2.55;0.93;;;21.50;99.90;;;;;;5092936;28;20599;-83
2022/12/22 07:23:26;;;;;;;4.28;0.90;;;21.40;99.90;;;;;;5093510;28;20233;-83
2022/12/22 07:25:57;;;;;;;2.83;1.30;;;21.40;99.90;;;;;;5091345;28;20245;-82
2022/12/22 07:28:30;;;;;;;4.55;1.10;;;21.40;99.90;;;;;;5094818;28;20271;-83
2022/12/22 07:31:00;;;;;;;2.15;0.80;;;21.40;99.90;;;;;;5093872;28;20203;-83
2022/12/22 07:33:33;;;;;;;2.85;0.80;;;21.30;99.90;;;;;;5091231;28;20191;-83
2022/12/22 07:36:12;;;;;;;2.35;1.00;;;21.30;99.90;;;;;;5091960;28;20253;-83
2022/12/22 07:38:46;;;;;;;3.80;1.00;;;21.30;99.90;;;;;;5092506;28;20198;-83
2022/12/22 07:44:03;;;;;;;4.30;0.95;;;21.20;99.90;;;;;;5071540;28;20198;-85
2022/12/22 07:46:36;;;;;;;2.60;0.88;;;21.20;99.90;;;;;;5079341;28;20214;-84
2022/12/22 07:51:57;;;;;;;4.35;1.15;;;21.20;99.90;;;;;;5083033;28;20256;-83
2022/12/22 07:54:30;;;;;;;2.00;0.90;;;21.20;99.90;;;;;;5083389;28;20676;-83
2022/12/22 07:57:01;;;;;;;3.42;1.13;;;21.20;99.90;;;;;;5091723;28;20199;-84
2022/12/22 07:59:32;;;;;;;2.50;1.00;;;21.20;99.90;;;;;;5092417;28;20301;-83
2022/12/22 08:02:06;;;;;;;4.30;1.33;;;21.10;99.90;;;;;;5092981;28;20637;-83
2022/12/22 08:04:37;;;;;;;3.92;1.08;;;21.10;99.90;;;;;;5090259;28;20218;-83
2022/12/22 08:07:07;;;;;;;5.25;1.00;;;21.10;99.90;;;;;;5089028;28;20669;-83
2022/12/22 08:09:42;;;;;;;4.28;1.00;;;21.00;99.90;;;;;;5092982;28;20287;-83
2022/12/22 08:12:13;;;;;;;5.15;1.20;;;21.00;99.90;;;;;;5072147;28;20226;-84
2022/12/22 08:14:44;;;;;;;2.53;0.98;;;21.00;99.90;;;;;;5072759;28;20263;-84
2022/12/22 08:17:16;;;;;;;2.42;1.08;;;20.90;99.90;;;;;;5087305;28;20750;-83
2022/12/22 08:19:47;;;;;;;2.45;1.08;;;20.90;99.90;;;;;;5084294;28;20286;-83
2022/12/22 08:22:18;;;;;;;4.82;1.30;;;20.90;99.90;;;;;;5090459;28;20230;-82
2022/12/22 08:24:51;;;;;;;2.90;1.10;;;20.90;99.90;;;;;;5103947;28;20227;-82
2022/12/22 08:27:25;;;;;;;4.68;1.15;;;20.80;99.90;;;;;;5091925;28;20195;-83
2022/12/22 08:30:00;;;;;;;4.13;1.13;;;20.90;99.90;;;;;;5091599;28;20202;-83
2022/12/22 08:32:31;;;;;;;4.35;1.10;;;20.80;99.90;;;;;;5092095;28;20190;-82
2022/12/22 08:35:02;;;;;;;3.17;0.80;;;20.80;99.90;;;;;;5089653;28;20202;-84
2022/12/22 08:37:39;;;;;;;2.50;1.02;;;20.70;99.90;;;;;;5092546;28;20559;-83
2022/12/22 08:40:19;;;;;;;7.18;1.85;;;20.80;99.90;;;;;;5091718;28;20234;-83
2022/12/22 08:42:52;;;;;;;4.30;2.72;;;20.70;99.90;;;;;;5071172;28;20211;-83
2022/12/22 08:45:23;;;;;;;3.80;1.38;;;20.70;99.90;;;;;;5071812;28;20223;-84
2022/12/22 08:47:53;;;;;;;4.03;1.20;;;20.70;99.90;;;;;;5071260;28;20262;-83
2022/12/22 08:50:24;;;;;;;2.63;1.10;;;20.70;99.90;;;;;;5088655;28;20203;-82
2022/12/22 08:53:02;;;;;;;2.22;0.82;;;20.60;99.90;;;;;;5091261;28;20569;-82
2022/12/22 08:55:35;;;;;;;3.38;1.25;;;20.60;99.90;;;;;;5093980;28;20737;-84
2022/12/22 08:58:07;;;;;;;3.80;1.23;;;20.60;99.90;;;;;;5075487;28;20282;-84
2022/12/22 09:00:38;;;;;;;4.70;1.13;;;20.60;99.90;;;;;;5073172;28;20206;-84
2022/12/22 09:03:09;;;;;;;4.85;1.08;;;20.60;99.90;;;;;;5076776;28;20231;-82
2022/12/22 09:05:40;;;;;;;4.25;1.00;;;20.60;99.90;;;;;;5096467;28;20776;-82
2022/12/22 09:08:14;;;;;;;2.28;0.90;;;20.60;99.90;;;;;;5097476;28;20487;-82
2022/12/22 09:10:48;;;;;;;4.05;0.80;;;20.60;99.90;;;;;;5111572;28;20183;-83
2022/12/22 09:13:21;;;;;;;4.95;1.20;;;20.60;99.90;;;;;;5108851;28;20262;-82
2022/12/22 09:15:53;;;;;;;2.38;0.60;;;20.60;99.90;;;;;;5109515;28;20194;-83
2022/12/22 09:18:24;;;;;;;3.13;0.80;;;20.50;99.90;;;;;;5109253;28;20233;-83
2022/12/22 09:21:07;;;;;;;4.05;0.90;;;20.60;99.90;;;;;;5089611;28;20204;-84
2022/12/22 09:23:39;;;;;;;3.17;0.70;;;20.50;99.90;;;;;;5090133;28;20200;-85
2022/12/22 09:26:14;;;;;;;2.63;0.80;;;20.50;99.90;;;;;;5090323;28;20230;-83
2022/12/22 09:28:46;;;;;;;4.88;0.90;;;20.50;99.90;;;;;;5096964;28;20183;-82
2022/12/22 09:34:04;;;;;;;3.95;0.98;;;20.50;99.90;;;;;;5102035;28;20229;-83
2022/12/22 09:36:36;;;;;;;3.47;0.80;;;20.40;99.90;;;;;;5086757;28;20267;-83
2022/12/22 09:39:12;;;;;;;2.65;0.77;;;20.40;99.90;;;;;;5082149;28;20255;-82
2022/12/22 09:41:51;;;;;;;3.67;0.70;;;20.40;99.90;;;;;;5101349;28;20226;-84
2022/12/22 09:44:26;;;;;;;4.43;0.80;;;20.40;99.90;;;;;;5101817;28;20196;-81
2022/12/22 09:46:59;;;;;;;4.13;0.70;;;20.30;99.90;;;;;;5105302;28;20230;-84
2022/12/22 09:49:31;;;;;;;3.67;0.80;;;20.30;99.90;;;;;;5092119;28;20220;-84
2022/12/22 09:52:04;;;;;;;6.47;0.90;;;20.30;99.90;;;;;;5092301;28;20227;-84
2022/12/22 09:54:37;;;;;;;4.70;0.80;;;20.30;99.90;;;;;;5079649;28;20195;-82
2022/12/22 09:57:14;;;;;;;5.90;1.10;;;20.30;99.90;;;;;;5091368;28;20210;-82
2022/12/22 09:59:45;;;;;;;5.18;1.10;;;20.20;99.90;;;;;;5087587;28;20202;-83
2022/12/22 10:02:26;;;;;;;4.90;1.25;;;20.30;99.90;;;;;;5093650;28;20621;-82
2022/12/22 10:05:12;;;;;;;3.13;0.98;;;20.20;99.90;;;;;;5079969;28;20219;-83
2022/12/22 10:07:44;;;;;;;4.50;1.13;;;20.20;99.90;;;;;;5076387;28;20214;-83
2022/12/22 10:10:24;;;;;;;4.43;1.05;;;20.20;99.90;;;;;;5089093;28;20634;-83
2022/12/22 10:12:58;;;;;;;3.35;1.00;;;20.20;99.90;;;;;;5072042;28;20278;-83
2022/12/22 10:15:35;;;;;;;5.03;0.88;;;20.20;99.90;;;;;;5091843;28;20659;-83
2022/12/22 10:18:14;;;;;;;4.70;0.98;;;20.20;99.90;;;;;;5090359;28;20587;-82
2022/12/22 10:20:47;;;;;;;3.60;0.80;;;20.10;99.90;;;;;;5093158;28;20650;-83
2022/12/22 10:23:19;;;;;;;5.30;1.35;;;20.20;99.90;;;;;;5092286;28;20535;-82
2022/12/22 10:26:07;;;;;;;3.10;1.00;;;20.10;99.90;;;;;;5095409;28;20223;-83
2022/12/22 10:28:43;;;;;;;3.90;0.90;;;20.10;99.90;;;;;;5095573;28;20270;-83
2022/12/22 10:31:20;;;;;;;2.47;0.77;;;20.10;99.90;;;;;;5096054;28;20195;-82
2022/12/22 10:33:52;;;;;;;4.85;0.85;;;20.10;99.90;;;;;;5115835;28;20206;-83
2022/12/22 10:36:25;;;;;;;2.65;0.80;;;20.10;99.90;;;;;;5098547;28;20775;-83
2022/12/22 10:39:02;;;;;;;2.13;0.80;;;20.20;99.90;;;;;;5095695;28;20201;-83
2022/12/22 10:41:36;;;;;;;6.53;1.15;;;20.20;99.90;;;;;;5097032;28;20191;-84
2022/12/22 10:44:11;;;;;;;2.83;0.70;;;20.20;99.90;;;;;;5097786;28;20704;-82
2022/12/22 10:46:44;;;;;;;3.63;0.93;;;20.20;99.90;;;;;;5093766;28;20223;-84
2022/12/22 10:49:21;;;;;;;4.53;0.88;;;20.20;99.90;;;;;;5094070;28;20227;-83
2022/12/22 10:51:57;;;;;;;3.10;0.82;;;20.20;99.90;;;;;;5097017;28;20283;-83
2022/12/22 10:54:34;;;;;;;2.03;0.73;;;20.20;99.90;;;;;;5096118;28;20565;-83
2022/12/22 10:57:08;;;;;;;2.80;0.82;;;20.20;99.90;;;;;;5075063;28;20208;-83
2022/12/22 10:59:54;;;;;;;3.78;0.70;;;20.20;99.90;;;;;;5075098;28;20257;-82
2022/12/22 11:02:38;;;;;;;3.58;0.93;;;20.20;99.90;;;;;;5091720;28;20187;-84
2022/12/22 11:05:11;;;;;;;2.03;0.93;;;20.20;99.90;;;;;;5093443;28;20254;-84
2022/12/22 11:07:43;;;;;;;3.28;0.93;;;20.20;99.90;;;;;;5099791;28;20300;-83
2022/12/22 11:10:28;;;;;;;3.50;0.88;;;20.20;99.90;;;;;;5095957;28;20215;-82
2022/12/22 11:13:12;;;;;;;1.90;0.70;;;20.30;99.90;;;;;;5097146;28;20749;-81
2022/12/22 11:15:50;;;;;;;3.35;0.70;;;20.20;99.90;;;;;;5103200;28;20226;-83
2022/12/22 11:18:38;;;;;;;2.47;0.75;;;20.20;99.90;;;;;;5102363;28;20203;-82
2022/12/22 11:21:21;;;;;;;2.80;0.80;;;20.30;99.90;;;;;;5078208;28;20208;-83
2022/12/22 11:24:04;;;;;;;6.00;0.82;;;20.20;99.90;;;;;;5093330;28;20241;-83
2022/12/22 11:26:57;;;;;;;2.30;0.80;;;20.30;99.90;;;;;;5088877;28;20218;-83
2022/12/22 11:30:08;;;;;;;4.55;0.95;;;20.20;99.90;;;;;;5111444;28;20253;-83
2022/12/22 11:33:02;;;;;;;4.18;0.98;;;20.30;99.90;;;;;;5110738;28;20207;-84
2022/12/22 11:36:03;;;;;;;4.03;1.02;;;20.30;99.90;;;;;;5091464;28;20256;-84
2022/12/22 11:38:50;;;;;;;3.40;1.15;;;20.30;99.90;;;;;;5092700;28;20227;-83
2022/12/22 11:41:44;;;;;;;3.45;0.80;;;20.30;99.90;;;;;;5085814;28;20211;-84
2022/12/22 11:44:43;;;;;;;1.42;0.73;;;20.30;99.90;;;;;;5101104;28;20332;-83
2022/12/22 11:47:27;;;;;;;2.15;0.70;;;20.30;99.90;;;;;;5093209;28;20255;-84
2022/12/22 11:50:43;;;;;;;2.88;0.70;;;20.30;99.90;;;;;;5104207;28;20207;-83
2022/12/22 11:53:54;;;;;;;4.97;0.98;;;20.30;99.90;;;;;;5092121;28;20202;-85
2022/12/22 11:56:41;;;;;;;3.22;1.08;;;20.30;99.90;;;;;;5086335;28;20203;-84
2022/12/22 11:59:30;;;;;;;3.80;0.95;;;20.30;99.90;;;;;;5104842;28;20260;-83
2022/12/22 12:02:27;;;;;;;1.90;0.70;;;20.30;99.90;;;;;;5086540;28;20189;-84
2022/12/22 12:05:23;;;;;;;4.18;0.70;;;20.30;99.90;;;;;;5094623;28;20249;-83
2022/12/22 12:08:01;;;;;;;1.92;0.77;;;20.40;99.90;;;;;;5097625;28;20706;-82
2022/12/22 12:10:38;;;;;;;3.67;1.00;;;20.30;99.90;;;;;;5094718;28;20685;-84
2022/12/22 12:13:17;;;;;;;3.85;0.70;;;20.30;99.90;;;;;;5094086;28;20547;-84
2022/12/22 12:15:51;;;;;;;2.10;0.70;;;20.30;99.90;;;;;;5093306;28;20249;-84
2022/12/22 12:18:52;;;;;;;3.67;0.70;;;20.30;99.90;;;;;;5092401;28;20228;-83
2022/12/22 12:21:29;;;;;;;2.45;0.80;;;20.30;99.90;;;;;;5078465;28;20279;-84
2022/12/22 12:24:35;;;;;;;2.83;0.90;;;20.30;99.90;;;;;;5094007;28;20195;-85
2022/12/22 12:27:21;;;;;;;2.30;0.80;;;20.30;99.90;;;;;;5100696;28;20215;-84
2022/12/22 12:30:01;;;;;;;3.17;0.80;;;20.30;99.90;;;;;;5093136;28;20195;-84
2022/12/22 12:32:37;;;;;;;2.47;0.70;;;20.30;99.90;;;;;;5094500;28;20195;-83
2022/12/22 12:35:29;;;;;;;3.00;0.90;;;20.30;99.90;;;;;;5091801;28;20614;-86
2022/12/22 12:38:07;;;;;;;2.70;0.70;;;20.30;99.90;;;;;;5107197;28;20184;-81
2022/12/22 12:40:47;;;;;;;4.75;1.10;;;20.20;99.90;;;;;;5094147;28;20195;-86
2022/12/22 12:43:21;;;;;;;1.95;0.80;;;20.20;99.90;;;;;;5093646;28;20191;-85
2022/12/22 12:45:54;;;;;;;2.65;1.10;;;20.10;99.90;;;;;;5094114;28;20211;-85
2022/12/22 12:48:43;;;;;;;3.13;1.10;;;20.10;99.90;;;;;;5092556;28;20195;-84
2022/12/22 12:51:48;;;;;;;4.22;0.80;;;20.10;99.90;;;;;;5083469;28;20199;-85
2022/12/22 12:54:40;;;;;;;4.05;0.90;;;20.00;99.90;;;;;;5091545;28;20206;-85
2022/12/22 12:57:25;;;;;;;3.72;0.95;;;20.00;99.90;;;;;;5088011;28;20215;-85
2022/12/22 12:59:59;;;;;;;5.32;1.13;;;20.10;99.90;;;;;;5087195;28;20286;-83
2022/12/22 13:02:57;;;;;;;1.70;0.70;;;19.90;99.90;;;;;;5090347;28;20282;-84
2022/12/22 13:05:35;;;;;;;2.25;0.90;;;19.90;99.90;;;;;;5088292;28;20535;-83
2022/12/22 13:08:20;;;;;;;2.50;1.08;;;19.90;99.90;;;;;;5076190;28;20199;-83
2022/12/22 13:11:24;;;;;;;1.67;0.77;;;20.00;99.90;;;;;;5085087;28;20195;-83
2022/12/22 13:13:56;;;;;;;4.05;0.98;;;20.00;99.90;;;;;;5071991;28;20290;-81
2022/12/22 13:16:37;;;;;;;4.72;1.20;;;20.10;99.90;;;;;;5080388;28;20596;-82
2022/12/22 13:19:30;;;;;;;5.20;1.27;;;20.10;99.90;;;;;;5090123;28;20210;-83
2022/12/22 13:22:03;;;;;;;3.47;1.27;;;20.00;99.90;;;;;;5086802;28;20334;-83
2022/12/22 13:24:43;;;;;;;5.78;1.15;;;19.90;99.90;;;;;;5087836;28;20576;-83
2022/12/22 13:27:15;;;;;;;3.92;1.13;;;19.90;99.90;;;;;;5067549;28;20693;-83
2022/12/22 13:29:49;;;;;;;4.65;1.10;;;19.90;99.90;;;;;;5086084;28;20287;-81
2022/12/22 13:32:26;;;;;;;3.75;0.90;;;19.90;99.90;;;;;;5089424;28;20650;-82
2022/12/22 13:35:13;;;;;;;2.05;0.90;;;19.90;99.90;;;;;;5083604;28;20198;-83
2022/12/22 13:37:46;;;;;;;3.35;1.00;;;19.80;99.90;;;;;;5081142;28;20208;-83
2022/12/22 13:40:20;;;;;;;5.38;1.17;;;19.80;99.90;;;;;;5104657;28;20238;-86
2022/12/22 13:42:54;;;;;;;4.18;1.13;;;19.80;99.90;;;;;;5090311;28;20191;-83
2022/12/22 13:45:40;;;;;;;3.47;1.10;;;19.80;99.90;;;;;;5081990;28;20203;-83
2022/12/22 13:48:19;;;;;;;4.00;1.20;;;19.80;99.90;;;;;;5091620;28;20552;-83
2022/12/22 13:50:52;;;;;;;5.47;1.20;;;19.80;99.90;;;;;;5083371;28;20427;-84
2022/12/22 13:53:31;;;;;;;3.58;1.02;;;19.80;99.90;;;;;;5073397;28;20279;-85
2022/12/22 13:56:03;;;;;;;3.15;1.00;;;19.80;99.90;;;;;;5091430;28;20191;-83
2022/12/22 13:58:38;;;;;;;4.90;1.13;;;19.90;99.90;;;;;;5107956;28;20556;-82
2022/12/22 14:01:19;;;;;;;5.55;1.20;;;19.90;99.90;;;;;;5104239;28;20622;-82
2022/12/22 14:03:56;;;;;;;3.20;1.05;;;19.90;99.90;;;;;;5092623;28;20238;-81
2022/12/22 14:06:31;;;;;;;5.15;1.40;;;19.90;99.90;;;;;;5087567;28;20210;-81
2022/12/22 14:09:19;;;;;;;4.10;1.00;;;19.90;99.90;;;;;;5094943;28;20191;-82
2022/12/22 14:11:52;;;;;;;4.32;0.80;;;19.90;99.90;;;;;;5095230;28;20234;-82
2022/12/22 14:14:26;;;;;;;3.08;0.90;;;19.90;99.90;;;;;;5095528;28;20201;-82
2022/12/22 14:17:00;;;;;;;6.00;1.20;;;20.00;99.90;;;;;;5094302;28;20593;-81
2022/12/22 14:19:35;;;;;;;2.60;0.98;;;20.00;99.90;;;;;;5091836;28;20563;-81
2022/12/22 14:22:09;;;;;;;3.72;0.70;;;20.00;99.90;;;;;;5094291;28;20222;-82
2022/12/22 14:24:47;;;;;;;1.80;0.70;;;20.00;99.90;;;;;;5092854;28;20199;-81
2022/12/22 14:27:25;;;;;;;2.20;0.88;;;20.00;99.90;;;;;;5094577;28;20704;-81
2022/12/22 14:29:56;;;;;;;2.45;1.05;;;20.00;99.90;;;;;;5093552;28;20346;-81
2022/12/22 14:32:48;;;;;;;2.30;0.90;;;20.00;99.90;;;;;;5092002;28;20314;-82
2022/12/22 14:35:32;;;;;;;3.05;0.90;;;19.90;99.90;;;;;;5087574;28;20290;-83
2022/12/22 14:38:21;;;;;;;2.88;0.90;;;19.90;99.90;;;;;;5074528;28;20200;-82
2022/12/22 14:40:53;;;;;;;2.20;0.85;;;19.90;99.90;;;;;;5094283;28;20196;-81
2022/12/22 14:43:31;;;;;;;2.78;1.00;;;19.80;99.90;;;;;;5103331;28;20289;-81
2022/12/22 14:46:08;;;;;;;1.33;0.60;;;19.80;99.90;;;;;;5091173;28;20195;-82
2022/12/22 14:48:41;;;;;;;2.92;0.90;;;19.70;99.90;;;;;;5092677;28;20664;-81
2022/12/22 14:51:20;;;;;;;3.58;0.90;;;19.80;99.90;;;;;;5101692;28;20203;-81
2022/12/22 14:53:54;;;;;;;2.75;0.95;;;19.70;99.90;;;;;;5104521;28;20233;-81
2022/12/22 14:56:28;;;;;;;2.50;0.88;;;19.70;99.90;;;;;;5097931;28;20302;-81
2022/12/22 14:59:13;;;;;;;1.77;0.50;;;19.70;99.90;;;;;;5093333;28;20528;-82
2022/12/22 15:02:04;;;;;;;2.38;0.90;;;19.70;99.90;;;;;;5077851;28;20592;-81
2022/12/22 15:04:35;;;;;;;3.10;0.90;;;19.60;99.90;;;;;;5085947;28;20287;-81
2022/12/22 15:07:20;;;;;;;2.30;0.70;;;19.70;99.90;;;;;;5106042;28;20242;-80
2022/12/22 15:09:51;;;;;;;2.50;1.02;;;19.60;99.90;;;;;;5101495;28;20175;-81
2022/12/22 15:12:23;;;;;;;2.60;1.00;;;19.70;99.90;;;;;;5106365;28;20227;-82
2022/12/22 15:14:54;;;;;;;4.40;1.00;;;19.60;99.90;;;;;;5096392;28;20621;-82
2022/12/22 15:17:26;;;;;;;2.35;0.80;;;19.60;99.90;;;;;;5095473;28;20784;-83
2022/12/22 15:19:59;;;;;;;1.85;0.70;;;19.60;99.90;;;;;;5091206;28;20199;-83
2022/12/22 15:22:32;;;;;;;2.78;0.88;;;19.60;99.90;;;;;;5094604;28;20206;-83
2022/12/22 15:25:03;;;;;;;1.60;0.70;;;19.60;99.90;;;;;;5094347;28;20194;-82
2022/12/22 15:27:35;;;;;;;1.88;0.70;;;19.50;99.90;;;;;;5093881;28;20235;-82
2022/12/22 15:30:07;;;;;;;3.78;1.00;;;19.50;99.90;;;;;;5094208;28;20658;-83
2022/12/22 15:32:38;;;;;;;2.30;0.85;;;19.50;99.90;;;;;;5092541;28;20287;-83
2022/12/22 15:35:18;;;;;;;2.35;1.02;;;19.50;99.90;;;;;;5074783;28;20244;-82
2022/12/22 15:37:52;;;;;;;3.72;1.08;;;19.50;99.90;;;;;;5074106;28;20565;-82
2022/12/22 15:40:24;;;;;;;1.98;0.82;;;19.50;99.90;;;;;;5095676;28;20201;-83
2022/12/22 15:42:55;;;;;;;2.83;0.80;;;19.50;99.90;;;;;;5116277;28;20214;-83
2022/12/22 15:45:26;;;;;;;2.95;1.10;;;19.50;99.90;;;;;;5095784;28;20238;-83
2022/12/22 15:47:58;;;;;;;2.22;0.90;;;19.40;99.90;;;;;;5093819;28;20302;-83
2022/12/22 15:50:32;;;;;;;1.90;0.85;;;19.40;99.90;;;;;;5092044;28;20199;-83
2022/12/22 15:53:07;;;;;;;2.40;0.95;;;19.50;99.90;;;;;;5093563;28;20217;-83
2022/12/22 15:55:42;;;;;;;5.95;1.00;;;19.40;99.90;;;;;;5093550;28;20205;-83
2022/12/22 15:58:16;;;;;;;3.17;0.95;;;19.30;99.90;;;;;;5073014;28;20582;-83
2022/12/22 16:00:47;;;;;;;3.03;0.98;;;19.40;99.90;;;;;;5075140;28;20195;-83
2022/12/22 16:03:18;;;;;;;2.08;1.00;;;19.40;99.90;;;;;;5101666;28;20289;-83
2022/12/22 16:05:51;;;;;;;2.47;1.00;;;19.40;99.90;;;;;;5091719;28;20286;-83
2022/12/22 16:08:29;;;;;;;3.08;0.82;;;19.30;99.90;;;;;;5084801;28;20266;-84
2022/12/22 16:11:00;;;;;;;3.65;0.90;;;19.30;99.90;;;;;;5079237;28;20457;-83
2022/12/22 16:13:31;;;;;;;2.67;0.95;;;19.30;99.90;;;;;;5092637;28;20282;-83
2022/12/22 16:16:02;;;;;;;1.65;0.80;;;19.30;99.90;;;;;;5092240;28;20205;-83
2022/12/22 16:18:33;;;;;;;1.77;0.90;;;19.30;99.90;;;;;;5052581;28;20641;-83
2022/12/22 16:21:14;;;;;;;1.40;0.90;;;19.30;99.90;;;;;;5050847;28;20214;-83
2022/12/22 16:23:49;;;;;;;2.70;0.95;;;19.20;99.90;;;;;;5052657;28;20706;-83
2022/12/22 16:26:22;;;;;;;2.00;0.90;;;19.30;99.90;;;;;;5052594;28;20267;-83
2022/12/22 16:28:54;;;;;;;3.30;1.00;;;19.30;99.90;;;;;;5052274;28;20957;-83
2022/12/22 16:31:26;;;;;;;3.33;0.90;;;19.30;99.90;;;;;;5050610;28;20566;-83
2022/12/22 16:33:57;;;;;;;2.22;0.98;;;19.30;99.90;;;;;;5046426;28;20197;-83
2022/12/22 16:36:28;;;;;;;1.85;0.90;;;19.40;99.90;;;;;;5052339;28;20283;-82
2022/12/22 16:39:01;;;;;;;4.13;1.15;;;19.40;99.90;;;;;;5052508;28;20256;-83
2022/12/22 16:41:32;;;;;;;2.47;1.10;;;19.40;99.90;;;;;;5053348;28;20197;-83
2022/12/22 16:44:08;;;;;;;2.88;1.00;;;19.40;99.90;;;;;;5072053;28;20187;-83
2022/12/22 16:46:40;;;;;;;2.25;1.00;;;19.40;99.90;;;;;;5052685;28;20200;-83
2022/12/22 16:49:15;;;;;;;2.05;1.00;;;19.40;99.90;;;;;;5049062;28;20197;-81
2022/12/22 16:51:49;;;;;;;2.67;0.98;;;19.40;99.90;;;;;;5051006;28;20725;-83
2022/12/22 16:54:22;;;;;;;1.60;1.08;;;19.40;99.90;;;;;;5052251;28;20291;-83
2022/12/22 16:56:53;;;;;;;2.90;1.00;;;19.40;99.90;;;;;;5052245;28;20801;-84
2022/12/22 16:59:24;;;;;;;3.78;1.10;;;19.40;99.90;;;;;;5052363;28;20283;-84
2022/12/22 17:01:56;;;;;;;3.08;1.00;;;19.40;99.90;;;;;;5045586;28;20691;-83
2022/12/22 17:04:30;;;;;;;3.85;1.15;;;19.40;99.90;;;;;;5048198;28;20537;-82
2022/12/22 17:07:02;;;;;;;2.55;1.00;;;19.40;99.90;;;;;;5051511;28;20295;-82
2022/12/22 17:09:40;;;;;;;2.25;1.00;;;19.50;99.90;;;;;;5051628;28;20606;-83
2022/12/22 17:12:17;;;;;;;4.03;1.20;;;19.50;99.90;;;;;;5052779;28;20228;-83
2022/12/22 17:14:49;;;;;;;1.98;1.23;;;19.50;99.90;;;;;;5054109;28;20271;-83
2022/12/22 17:17:21;;;;;;;2.40;1.30;;;19.50;99.90;;;;;;5093673;28;20254;-84
2022/12/22 17:19:53;;;;;;;2.75;1.20;;;19.50;99.90;;;;;;5097182;28;20286;-84